CGX weather

CLOSED Chicago Meigs Airport
Chicago, Illinois, United States

Public forecast

Using degrees Fahrenheit for public forecast. Weather courtesy of forecast.io.

METAR (pilot weather report)

Closest report is Chicago Midway International Airport, 7.8 nm (14.5 km) SW. Retrieved 2019/09/19 10:53 UTC (32 minutes ago):

KMDW 191053Z 17004KT 10SM FEW200 18/13 A3007 RMK AO2 SLP173 T01830128

TAF (pilot weather forecast)

Closest forecast is Chicago Midway International Airport, 7.8 nm (14.5 km) SW. Retrieved 2019/09/19 06:30 UTC (5 hours ago):

TAF KMDW 190527Z 1906/2012 17006KT P6SM BKN250 FM191300 20008KT P6SM FEW060 BKN150 OVC250 FM192200 12009KT P6SM BKN150 BKN250 FM200200 19003KT P6SM BKN150 BKN250